createdAt,value
2018-04-13T00:00:57.326Z,8.20
2018-04-13T00:03:23.972Z,7.80
2018-04-13T00:05:50.639Z,7.80
2018-04-13T00:08:17.284Z,5.90
2018-04-13T00:10:43.951Z,7.55
2018-04-13T00:13:10.664Z,7.30
2018-04-13T00:15:37.294Z,13.10
2018-04-13T00:18:04.052Z,9.52
2018-04-13T00:20:30.674Z,7.35
2018-04-13T00:22:57.319Z,13.57
2018-04-13T00:25:24.046Z,7.20
2018-04-13T00:27:50.672Z,6.43
2018-04-13T00:30:17.303Z,8.48
2018-04-13T00:32:43.939Z,8.48
2018-04-13T00:35:11.082Z,7.95
2018-04-13T00:37:37.778Z,9.27
2018-04-13T00:40:04.416Z,8.95
2018-04-13T00:42:31.146Z,9.27
2018-04-13T00:44:57.766Z,10.82
2018-04-13T00:47:24.531Z,15.55
2018-04-13T00:49:51.180Z,13.23
2018-04-13T00:52:17.916Z,8.48
2018-04-13T00:54:44.661Z,7.30
2018-04-13T00:57:11.278Z,8.32
2018-04-13T00:59:37.935Z,7.93
2018-04-13T01:02:04.570Z,8.93
2018-04-13T01:04:31.211Z,12.85
2018-04-13T01:06:57.844Z,15.48
2018-04-13T01:09:24.597Z,6.90
2018-04-13T01:11:51.331Z,11.70
2018-04-13T01:14:17.967Z,11.48
2018-04-13T01:16:44.663Z,7.43
2018-04-13T01:19:11.278Z,7.37
2018-04-13T01:21:38.028Z,6.30
2018-04-13T01:24:04.667Z,7.12
2018-04-13T01:26:31.283Z,5.95
2018-04-13T01:28:58.011Z,6.03
2018-04-13T01:31:24.651Z,6.95
2018-04-13T01:33:51.277Z,8.02
2018-04-13T01:36:17.926Z,6.68
2018-04-13T01:38:44.563Z,5.18
2018-04-13T01:41:11.182Z,5.22
2018-04-13T01:43:37.815Z,12.82
2018-04-13T01:46:04.455Z,6.43
2018-04-13T01:48:31.128Z,6.68
2018-04-13T01:50:57.747Z,5.40
2018-04-13T01:53:24.507Z,8.40
2018-04-13T01:55:51.242Z,14.57
2018-04-13T01:58:17.863Z,5.43
2018-04-13T02:00:44.504Z,7.40
2018-04-13T02:03:11.134Z,6.20
2018-04-13T02:05:37.755Z,5.90
2018-04-13T02:08:04.447Z,12.02
2018-04-13T02:10:31.179Z,7.00
2018-04-13T02:12:57.823Z,5.90
2018-04-13T02:15:24.481Z,6.72
2018-04-13T02:17:51.095Z,9.32
2018-04-13T02:20:17.749Z,6.97
2018-04-13T02:22:44.390Z,7.35
2018-04-13T02:25:11.876Z,6.32
2018-04-13T02:27:38.503Z,9.13
2018-04-13T02:30:05.144Z,8.13
2018-04-13T02:32:31.780Z,7.75
2018-04-13T02:34:58.403Z,8.27
2018-04-13T02:37:25.037Z,9.95
2018-04-13T02:39:51.661Z,6.53
2018-04-13T02:42:18.280Z,14.38
2018-04-13T02:44:44.927Z,6.37
2018-04-13T02:47:11.591Z,6.95
2018-04-13T02:49:38.206Z,7.80
2018-04-13T02:52:04.853Z,8.23
2018-04-13T02:54:31.503Z,8.48
2018-04-13T02:56:58.134Z,7.30
2018-04-13T02:59:24.771Z,7.30
2018-04-13T03:01:51.410Z,5.95
2018-04-13T03:04:18.034Z,13.62
2018-04-13T03:06:44.683Z,9.02
2018-04-13T03:09:11.321Z,10.25
2018-04-13T03:11:37.951Z,5.97
2018-04-13T03:14:04.598Z,7.18
2018-04-13T03:16:31.235Z,12.45
2018-04-13T03:18:57.863Z,5.95
2018-04-13T03:21:24.507Z,11.80
2018-04-13T03:23:51.136Z,7.93
2018-04-13T03:26:17.757Z,7.25
2018-04-13T03:28:44.451Z,5.68
2018-04-13T03:31:11.084Z,9.52
2018-04-13T03:33:37.708Z,6.20
2018-04-13T03:36:04.348Z,8.95
2018-04-13T03:38:31.005Z,6.28
2018-04-13T03:40:57.636Z,5.68
2018-04-13T03:43:24.284Z,5.25
2018-04-13T03:45:50.898Z,7.12
2018-04-13T03:48:17.565Z,5.35
2018-04-13T03:50:44.228Z,14.05
2018-04-13T03:53:10.842Z,7.25
2018-04-13T03:55:37.464Z,6.75
2018-04-13T03:58:04.210Z,7.65
2018-04-13T04:00:30.830Z,5.97
2018-04-13T04:02:57.503Z,6.40
2018-04-13T04:05:24.160Z,11.18
2018-04-13T04:07:50.870Z,5.50
2018-04-13T04:10:17.495Z,5.32
2018-04-13T04:12:44.144Z,7.60
2018-04-13T04:15:11.424Z,6.65
2018-04-13T04:17:38.043Z,5.28
2018-04-13T04:20:10.627Z,4.87
2018-04-13T04:22:43.323Z,8.43
2018-04-13T04:25:15.797Z,7.40
2018-04-13T04:27:42.443Z,6.87
2018-04-13T04:30:09.071Z,5.25
2018-04-13T04:32:36.591Z,9.90
2018-04-13T04:35:03.250Z,8.90
2018-04-13T04:37:29.866Z,9.20
2018-04-13T04:39:56.530Z,8.32
2018-04-13T04:42:23.171Z,13.57
2018-04-13T04:44:49.802Z,12.35
2018-04-13T04:47:16.444Z,11.60
2018-04-13T04:49:43.081Z,11.88
2018-04-13T04:52:09.704Z,7.32
2018-04-13T04:54:36.471Z,8.38
2018-04-13T04:57:03.137Z,8.93
2018-04-13T04:59:29.877Z,8.95
2018-04-13T05:01:56.514Z,11.48
2018-04-13T05:04:23.144Z,11.07
2018-04-13T05:06:49.896Z,15.40
2018-04-13T05:09:16.539Z,11.95
2018-04-13T05:11:43.261Z,10.05
2018-04-13T05:14:10.000Z,7.15
2018-04-13T05:16:36.639Z,10.77
2018-04-13T05:19:03.366Z,11.48
2018-04-13T05:21:29.991Z,19.10
2018-04-13T05:23:56.627Z,7.97
2018-04-13T05:26:23.268Z,13.05
2018-04-13T05:28:49.928Z,10.20
2018-04-13T05:31:16.572Z,5.72
2018-04-13T05:33:43.200Z,10.32
2018-04-13T05:36:09.831Z,10.82
2018-04-13T05:38:36.472Z,8.70
2018-04-13T05:41:03.093Z,9.82
2018-04-13T05:43:29.709Z,9.45
2018-04-13T05:45:56.407Z,7.18
2018-04-13T05:48:23.039Z,15.40
2018-04-13T05:50:49.707Z,7.25
2018-04-13T05:53:16.356Z,11.50
2018-04-13T05:55:42.974Z,7.57
2018-04-13T05:58:09.607Z,11.52
2018-04-13T06:00:36.276Z,8.98
2018-04-13T06:03:02.987Z,10.25
2018-04-13T06:05:29.611Z,7.22
2018-04-13T06:07:56.266Z,12.15
2018-04-13T06:10:22.896Z,7.95
2018-04-13T06:12:49.515Z,12.40
2018-04-13T06:15:16.174Z,10.10
2018-04-13T06:17:42.818Z,13.10
2018-04-13T06:20:09.444Z,8.98
2018-04-13T06:22:36.092Z,12.77
2018-04-13T06:25:02.717Z,9.70
2018-04-13T06:27:29.343Z,7.25
2018-04-13T06:29:56.003Z,11.00
2018-04-13T06:32:22.623Z,9.18
2018-04-13T06:34:49.253Z,8.00
2018-04-13T06:37:15.956Z,9.57
2018-04-13T06:39:42.555Z,6.60
2018-04-13T06:42:09.172Z,8.07
2018-04-13T06:44:35.856Z,17.83
2018-04-13T06:47:02.608Z,9.32
2018-04-13T06:49:29.234Z,7.25
2018-04-13T06:51:55.971Z,11.82
2018-04-13T06:54:22.629Z,8.32
2018-04-13T06:56:49.246Z,6.30
2018-04-13T06:59:16.010Z,3.60
2018-04-13T07:01:42.635Z,7.68
2018-04-13T07:04:09.255Z,3.50
2018-04-13T07:06:35.902Z,4.43
2018-04-13T07:09:02.565Z,4.50
2018-04-13T07:11:29.273Z,4.43
2018-04-13T07:13:55.924Z,3.50
2018-04-13T07:16:22.558Z,6.60
2018-04-13T07:18:49.184Z,5.00
2018-04-13T07:21:15.939Z,5.93
2018-04-13T07:23:42.565Z,3.90
2018-04-13T07:26:09.191Z,6.12
2018-04-13T07:28:35.850Z,3.92
2018-04-13T07:31:02.471Z,5.93
2018-04-13T07:33:29.107Z,5.15
2018-04-13T07:35:55.765Z,5.50
2018-04-13T07:38:22.376Z,6.78
2018-04-13T07:40:48.999Z,8.27
2018-04-13T07:43:15.690Z,8.25
2018-04-13T07:45:42.330Z,8.48
2018-04-13T07:48:08.964Z,7.75
2018-04-13T07:50:35.606Z,10.18
2018-04-13T07:53:02.246Z,6.30
2018-04-13T07:55:28.886Z,9.32
2018-04-13T07:57:55.529Z,7.80
2018-04-13T08:00:22.156Z,7.00
2018-04-13T08:02:48.794Z,6.15
2018-04-13T08:05:15.548Z,7.47
2018-04-13T08:07:42.177Z,6.15
2018-04-13T08:10:08.805Z,8.10
2018-04-13T08:12:35.487Z,6.43
2018-04-13T08:15:02.114Z,8.55
2018-04-13T08:17:28.747Z,8.70
2018-04-13T08:19:55.379Z,7.95
2018-04-13T08:22:22.020Z,7.15
2018-04-13T08:24:48.638Z,6.97
2018-04-13T08:27:15.269Z,6.43
2018-04-13T08:29:41.898Z,7.47
2018-04-13T08:32:08.533Z,7.75
2018-04-13T08:34:35.222Z,7.25
2018-04-13T08:37:01.950Z,6.65
2018-04-13T08:39:28.575Z,7.43
2018-04-13T08:41:55.231Z,9.27
2018-04-13T08:44:21.860Z,10.18
2018-04-13T08:46:48.484Z,8.65
2018-04-13T08:49:15.222Z,7.40
2018-04-13T08:51:41.771Z,13.68
2018-04-13T08:54:08.433Z,10.48
2018-04-13T08:56:35.196Z,12.65
2018-04-13T08:59:01.840Z,11.48
2018-04-13T09:01:28.468Z,9.27
2018-04-13T09:03:55.110Z,8.20
2018-04-13T09:06:21.763Z,9.43
2018-04-13T09:08:48.370Z,9.80
2018-04-13T09:11:15.035Z,10.00
2018-04-13T09:13:41.645Z,10.88
2018-04-13T09:16:08.276Z,13.10
2018-04-13T09:18:35.048Z,10.85
2018-04-13T09:21:01.768Z,11.98
2018-04-13T09:23:28.498Z,11.15
2018-04-13T09:25:55.247Z,10.70
2018-04-13T09:28:21.911Z,9.75
2018-04-13T09:30:48.551Z,10.43
2018-04-13T09:33:15.267Z,14.63
2018-04-13T09:35:41.937Z,10.07
2018-04-13T09:38:08.673Z,12.95
2018-04-13T09:40:35.398Z,9.10
2018-04-13T09:43:02.020Z,9.57
2018-04-13T09:45:28.639Z,14.27
2018-04-13T09:47:55.275Z,9.82
2018-04-13T09:50:21.898Z,11.43
2018-04-13T09:52:48.519Z,15.32
2018-04-13T09:55:15.167Z,15.07
2018-04-13T09:57:41.876Z,13.10
2018-04-13T10:00:08.846Z,11.90
2018-04-13T10:02:38.281Z,11.55
2018-04-13T10:05:10.578Z,15.30
2018-04-13T10:07:37.203Z,13.00
2018-04-13T10:10:03.859Z,13.45
2018-04-13T10:12:30.528Z,12.82
2018-04-13T10:14:57.160Z,14.18
2018-04-13T10:17:23.806Z,14.55
2018-04-13T10:19:50.530Z,12.63
2018-04-13T10:22:17.185Z,10.40
2018-04-13T10:24:43.927Z,9.35
2018-04-13T10:27:10.643Z,9.10
2018-04-13T10:29:37.284Z,10.88
2018-04-13T10:32:04.025Z,9.73
2018-04-13T10:34:30.767Z,12.10
2018-04-13T10:36:57.530Z,8.65
2018-04-13T10:39:24.242Z,9.30
2018-04-13T10:41:50.871Z,9.00
2018-04-13T10:44:17.552Z,8.00
2018-04-13T10:46:44.201Z,10.05
2018-04-13T10:49:10.908Z,7.10
2018-04-13T10:51:37.570Z,5.97
2018-04-13T10:54:04.208Z,7.43
2018-04-13T10:56:30.921Z,6.90
2018-04-13T10:58:57.566Z,8.80
2018-04-13T11:01:24.198Z,5.90
2018-04-13T11:03:50.844Z,6.37
2018-04-13T11:06:17.507Z,5.20
2018-04-13T11:08:44.152Z,5.65
2018-04-13T11:11:10.784Z,6.30
2018-04-13T11:13:37.527Z,4.53
2018-04-13T11:16:04.243Z,4.43
2018-04-13T11:18:30.906Z,3.90
2018-04-13T11:20:57.545Z,4.37
2018-04-13T11:23:24.258Z,8.40
2018-04-13T11:25:50.899Z,5.95
2018-04-13T11:28:17.520Z,5.03
2018-04-13T11:30:44.238Z,6.50
2018-04-13T11:33:10.882Z,8.85
2018-04-13T11:35:37.583Z,3.33
2018-04-13T11:38:04.872Z,11.38
2018-04-13T11:40:31.681Z,8.65
2018-04-13T11:42:58.425Z,8.88
2018-04-13T11:45:26.088Z,6.50
2018-04-13T11:47:52.930Z,13.90
2018-04-13T11:50:19.603Z,4.82
2018-04-13T11:52:46.322Z,7.22
2018-04-13T11:55:13.109Z,8.95
2018-04-13T11:57:39.870Z,15.20
2018-04-13T12:00:06.643Z,9.50
2018-04-13T12:02:33.429Z,6.47
2018-04-13T12:05:00.324Z,4.57
2018-04-13T12:07:26.969Z,4.62
2018-04-13T12:09:54.116Z,3.00
2018-04-13T12:12:20.936Z,10.77
2018-04-13T12:14:47.800Z,3.60
2018-04-13T12:17:14.748Z,16.55
2018-04-13T12:19:41.464Z,5.70
2018-04-13T12:22:08.101Z,6.30
2018-04-13T12:24:34.740Z,6.57
2018-04-13T12:27:01.920Z,4.97
2018-04-13T12:29:29.474Z,6.10
2018-04-13T12:31:56.163Z,5.43
2018-04-13T12:34:22.813Z,5.45
2018-04-13T12:36:49.498Z,7.90
2018-04-13T12:39:16.216Z,4.78
2018-04-13T12:41:42.836Z,7.80
2018-04-13T12:44:09.469Z,4.57
2018-04-13T12:46:36.127Z,5.35
2018-04-13T12:49:02.786Z,5.70
2018-04-13T12:51:29.428Z,6.78
2018-04-13T12:53:56.064Z,8.07
2018-04-13T12:56:22.691Z,7.45
2018-04-13T12:58:49.327Z,6.72
2018-04-13T13:01:16.542Z,6.10
2018-04-13T13:03:44.064Z,4.55
2018-04-13T13:06:11.624Z,5.50
2018-04-13T13:08:38.385Z,5.50
2018-04-13T13:11:04.984Z,4.15
2018-04-13T13:13:31.614Z,3.70
2018-04-13T13:15:58.260Z,4.00
2018-04-13T13:18:24.890Z,3.45
2018-04-13T13:20:51.530Z,4.28
2018-04-13T13:23:18.176Z,3.92
2018-04-13T13:25:44.811Z,4.57
2018-04-13T13:28:11.451Z,4.25
2018-04-13T13:30:38.086Z,3.50
2018-04-13T13:33:04.716Z,4.57
2018-04-13T13:35:31.360Z,6.40
2018-04-13T13:37:57.999Z,2.65
2018-04-13T13:40:25.084Z,5.28
2018-04-13T13:42:52.003Z,2.35
2018-04-13T13:45:18.708Z,7.93
2018-04-13T13:47:45.343Z,0.90
2018-04-13T13:50:11.988Z,1.20
2018-04-13T13:52:38.663Z,1.10
2018-04-13T13:55:05.409Z,1.42
2018-04-13T13:57:32.060Z,1.95
2018-04-13T13:59:58.675Z,1.70
2018-04-13T14:02:25.302Z,2.25
2018-04-13T14:04:51.959Z,1.75
2018-04-13T14:07:18.579Z,1.50
2018-04-13T14:09:45.198Z,2.05
2018-04-13T14:12:11.839Z,2.30
2018-04-13T14:14:38.465Z,5.18
2018-04-13T14:17:05.103Z,2.55
2018-04-13T14:19:31.801Z,2.87
2018-04-13T14:21:58.531Z,3.22
2018-04-13T14:24:25.173Z,3.33
2018-04-13T14:26:51.920Z,2.25
2018-04-13T14:29:18.552Z,2.78
2018-04-13T14:31:45.178Z,2.30
2018-04-13T14:34:11.820Z,1.70
2018-04-13T14:36:38.463Z,0.95
2018-04-13T14:39:05.106Z,0.70
2018-04-13T14:41:31.841Z,4.03
2018-04-13T14:43:58.474Z,0.90
2018-04-13T14:46:25.100Z,1.25
2018-04-13T14:48:51.743Z,8.35
2018-04-13T14:51:18.378Z,1.30
2018-04-13T14:53:45.003Z,1.65
2018-04-13T14:56:11.683Z,2.00
2018-04-13T14:58:38.311Z,1.87
2018-04-13T15:01:04.965Z,1.75
2018-04-13T15:03:31.612Z,1.80
2018-04-13T15:05:58.226Z,2.28
2018-04-13T15:08:24.881Z,2.15
2018-04-13T15:10:51.528Z,1.90
2018-04-13T15:13:18.151Z,1.90
2018-04-13T15:15:44.780Z,2.33
2018-04-13T15:18:11.548Z,2.03
2018-04-13T15:20:38.199Z,2.30
2018-04-13T15:23:04.918Z,2.62
2018-04-13T15:25:31.584Z,2.28
2018-04-13T15:27:58.203Z,2.40
2018-04-13T15:30:24.819Z,2.40
2018-04-13T15:32:51.460Z,2.70
2018-04-13T15:35:18.088Z,4.90
2018-04-13T15:37:44.719Z,2.67
2018-04-13T15:40:11.412Z,6.70
2018-04-13T15:42:38.004Z,2.70
2018-04-13T15:45:04.673Z,4.40
2018-04-13T15:47:31.314Z,2.80
2018-04-13T15:49:57.929Z,3.30
2018-04-13T15:52:24.584Z,4.05
2018-04-13T15:54:51.319Z,4.43
2018-04-13T15:57:17.964Z,2.60
2018-04-13T15:59:44.607Z,3.00
2018-04-13T16:02:11.242Z,2.87
2018-04-13T16:04:37.864Z,3.15
2018-04-13T16:07:04.527Z,2.97
2018-04-13T16:09:31.179Z,2.92
2018-04-13T16:11:57.801Z,3.85
2018-04-13T16:14:24.419Z,4.45
2018-04-13T16:16:51.063Z,4.30
2018-04-13T16:19:17.708Z,4.40
2018-04-13T16:21:44.345Z,4.50
2018-04-13T16:24:11.104Z,4.82
2018-04-13T16:26:37.751Z,5.55
2018-04-13T16:29:04.371Z,4.75
2018-04-13T16:31:31.007Z,7.75
2018-04-13T16:33:57.645Z,5.57
2018-04-13T16:36:24.277Z,5.22
2018-04-13T16:38:50.962Z,6.00
2018-04-13T16:41:17.672Z,6.87
2018-04-13T16:43:44.296Z,7.25
2018-04-13T16:46:10.949Z,6.70
2018-04-13T16:48:37.612Z,6.80
2018-04-13T16:51:04.236Z,6.20
2018-04-13T16:53:30.870Z,8.30
2018-04-13T16:55:57.531Z,7.47
2018-04-13T16:58:24.140Z,10.38
2018-04-13T17:00:50.887Z,8.45
2018-04-13T17:03:17.510Z,10.05
2018-04-13T17:05:44.132Z,6.87
2018-04-13T17:08:10.799Z,7.20
2018-04-13T17:10:37.419Z,7.53
2018-04-13T17:13:04.078Z,7.55
2018-04-13T17:15:30.714Z,7.78
2018-04-13T17:17:57.355Z,9.70
2018-04-13T17:20:23.982Z,7.90
2018-04-13T17:22:50.637Z,9.10
2018-04-13T17:25:17.273Z,8.00
2018-04-13T17:27:43.937Z,7.40
2018-04-13T17:30:10.575Z,7.90
2018-04-13T17:32:37.195Z,7.70
2018-04-13T17:35:03.820Z,6.60
2018-04-13T17:37:30.493Z,7.82
2018-04-13T17:39:57.211Z,7.03
2018-04-13T17:42:23.841Z,8.20
2018-04-13T17:44:50.488Z,8.25
2018-04-13T17:47:17.128Z,7.35
2018-04-13T17:49:43.763Z,7.30
2018-04-13T17:52:10.402Z,5.97
2018-04-13T17:54:37.024Z,6.82
2018-04-13T17:57:03.679Z,6.00
2018-04-13T17:59:30.317Z,7.65
2018-04-13T18:01:56.940Z,6.97
2018-04-13T18:04:23.608Z,8.35
2018-04-13T18:06:50.242Z,7.03
2018-04-13T18:09:16.868Z,7.15
2018-04-13T18:11:43.494Z,6.60
2018-04-13T18:14:10.159Z,7.60
2018-04-13T18:16:36.776Z,6.57
2018-04-13T18:19:03.408Z,5.97
2018-04-13T18:21:30.042Z,7.90
2018-04-13T18:23:56.676Z,7.62
2018-04-13T18:26:23.347Z,5.50
2018-04-13T18:28:49.991Z,5.95
2018-04-13T18:31:16.618Z,5.95
2018-04-13T18:33:43.303Z,6.25
2018-04-13T18:36:10.006Z,6.12
2018-04-13T18:38:36.627Z,6.50
2018-04-13T18:41:03.253Z,5.97
2018-04-13T18:43:29.922Z,5.55
2018-04-13T18:45:56.548Z,6.60
2018-04-13T18:48:23.179Z,5.95
2018-04-13T18:50:49.848Z,6.65
2018-04-13T18:53:16.485Z,7.00
2018-04-13T18:55:43.097Z,6.03
2018-04-13T18:58:09.798Z,7.20
2018-04-13T19:00:36.384Z,5.70
2018-04-13T19:03:03.007Z,9.60
2018-04-13T19:05:29.649Z,5.85
2018-04-13T19:07:56.274Z,6.50
2018-04-13T19:10:22.901Z,5.68
2018-04-13T19:12:49.593Z,5.22
2018-04-13T19:15:16.236Z,6.35
2018-04-13T19:17:42.868Z,5.78
2018-04-13T19:20:09.586Z,9.00
2018-04-13T19:22:36.251Z,6.35
2018-04-13T19:25:02.875Z,6.30
2018-04-13T19:27:29.514Z,8.27
2018-04-13T19:29:56.139Z,7.10
2018-04-13T19:32:22.810Z,6.32
2018-04-13T19:34:49.446Z,5.28
2018-04-13T19:37:16.090Z,4.82
2018-04-13T19:39:42.707Z,4.82
2018-04-13T19:42:09.352Z,4.68
2018-04-13T19:44:35.982Z,4.60
2018-04-13T19:47:02.617Z,5.60
2018-04-13T19:49:29.253Z,6.10
2018-04-13T19:51:55.876Z,5.37
2018-04-13T19:54:22.588Z,5.62
2018-04-13T19:56:49.219Z,4.70
2018-04-13T19:59:15.836Z,5.20
2018-04-13T20:01:42.473Z,4.80
2018-04-13T20:04:09.110Z,5.40
2018-04-13T20:06:35.731Z,5.28
2018-04-13T20:09:02.377Z,5.78
2018-04-13T20:11:29.019Z,4.90
2018-04-13T20:13:55.648Z,5.32
2018-04-13T20:16:22.267Z,5.40
2018-04-13T20:18:48.916Z,4.60
2018-04-13T20:21:15.592Z,4.68
2018-04-13T20:23:42.255Z,5.32
2018-04-13T20:26:08.896Z,5.50
2018-04-13T20:28:35.523Z,5.90
2018-04-13T20:31:02.147Z,7.75
2018-04-13T20:33:28.813Z,4.43
2018-04-13T20:35:55.440Z,4.87
2018-04-13T20:38:22.069Z,8.10
2018-04-13T20:40:48.707Z,6.00
2018-04-13T20:43:15.321Z,6.05
2018-04-13T20:45:41.991Z,6.72
2018-04-13T20:48:08.732Z,5.32
2018-04-13T20:50:35.458Z,5.30
2018-04-13T20:53:02.083Z,5.90
2018-04-13T20:55:28.728Z,6.22
2018-04-13T20:57:55.364Z,10.07
2018-04-13T21:00:22.045Z,7.43
2018-04-13T21:02:48.682Z,7.95
2018-04-13T21:05:15.407Z,8.30
2018-04-13T21:07:42.143Z,7.32
2018-04-13T21:10:08.806Z,7.82
2018-04-13T21:12:35.432Z,8.00
2018-04-13T21:15:02.069Z,7.05
2018-04-13T21:17:28.710Z,8.52
2018-04-13T21:19:55.435Z,6.97
2018-04-13T21:22:22.055Z,7.55
2018-04-13T21:24:48.748Z,8.40
2018-04-13T21:27:15.338Z,7.55
2018-04-13T21:29:41.968Z,11.00
2018-04-13T21:32:08.603Z,8.85
2018-04-13T21:34:35.220Z,8.15
2018-04-13T21:37:01.843Z,8.65
2018-04-13T21:39:28.551Z,7.55
2018-04-13T21:41:55.184Z,18.12
2018-04-13T21:44:21.827Z,8.48
2018-04-13T21:46:48.473Z,8.68
2018-04-13T21:49:15.103Z,7.65
2018-04-13T21:51:41.725Z,7.37
2018-04-13T21:54:08.386Z,8.93
2018-04-13T21:56:35.027Z,9.93
2018-04-13T21:59:01.771Z,8.63
2018-04-13T22:01:28.506Z,7.57
2018-04-13T22:03:55.135Z,7.43
2018-04-13T22:06:21.793Z,8.60
2018-04-13T22:08:48.441Z,7.07
2018-04-13T22:11:15.063Z,7.87
2018-04-13T22:13:45.619Z,9.07
2018-04-13T22:16:12.257Z,8.50
2018-04-13T22:18:39.001Z,8.43
2018-04-13T22:21:05.631Z,9.30
2018-04-13T22:23:32.365Z,10.25
2018-04-13T22:25:59.107Z,9.05
2018-04-13T22:28:25.723Z,9.43
2018-04-13T22:30:52.388Z,8.40
2018-04-13T22:33:19.029Z,9.32
2018-04-13T22:35:45.676Z,11.90
2018-04-13T22:38:12.316Z,9.60
2018-04-13T22:40:39.058Z,11.20
2018-04-13T22:43:05.694Z,11.05
2018-04-13T22:45:32.347Z,11.93
2018-04-13T22:47:59.080Z,11.95
2018-04-13T22:50:25.794Z,11.98
2018-04-13T22:52:52.531Z,10.52
2018-04-13T22:55:19.168Z,14.30
2018-04-13T22:57:45.807Z,12.32
2018-04-13T23:00:12.580Z,12.88
2018-04-13T23:02:39.226Z,13.48
2018-04-13T23:05:05.856Z,12.02
2018-04-13T23:07:32.512Z,13.88
2018-04-13T23:09:59.214Z,13.88
2018-04-13T23:12:25.843Z,14.18
2018-04-13T23:14:52.594Z,14.07
2018-04-13T23:17:19.222Z,13.52
2018-04-13T23:19:45.859Z,13.07
2018-04-13T23:22:27.467Z,14.48
2018-04-13T23:24:54.212Z,15.50
2018-04-13T23:27:20.844Z,14.87
2018-04-13T23:29:47.494Z,13.10
2018-04-13T23:32:14.123Z,15.55
2018-04-13T23:34:40.750Z,13.90
2018-04-13T23:37:07.400Z,13.98
2018-04-13T23:39:34.039Z,13.52
2018-04-13T23:42:00.771Z,14.10
2018-04-13T23:44:27.527Z,12.50
2018-04-13T23:46:54.184Z,14.68
2018-04-13T23:49:20.807Z,14.75
2018-04-13T23:51:47.459Z,13.30
2018-04-13T23:54:14.189Z,13.32
2018-04-13T23:56:40.966Z,18.98
2018-04-13T23:59:07.596Z,14.02
